Sargeant, MN (55973)

6:35 PM CDT on July 23, 2016 (GMT -0500)
325th St | | Change Station

Elev 1319 ft 43.83 °N, 92.62 °W | Updated 13 minutes ago

Clear
Clear
75.6 °F
Feels Like 76 °F
N
12.5
Wind Variable Wind from ESE

Today
High -- | Low -- °F
--% Chance of Precip.
Yesterday
High -- | Low -- °F
Precip. -- in
Pressure 29.82 in
Visibility 10.0 miles
Clouds Clear
Heat Index 76 °F
Dew Point 69 °F
Humidity 80%
Rainfall 1.24 in
Snow Depth Not available.
5:50 AM 8:43 PM
Waning Gibbous, 81% visible
METAR KAUM 232315Z AUTO 16011G20KT 10SM CLR 25/21 A2982 RMK AO2 LTG DSNT SE
Pressure 29.82 in
Visibility 10.0 miles
Clouds Clear
Heat Index 76 °F
Dew Point 69 °F
Humidity 80%
Rainfall 1.24 in
Snow Depth Not available.
5:50 AM 8:43 PM
Waning Gibbous, 81% visible
METAR KAUM 232315Z AUTO 16011G20KT 10SM CLR 25/21 A2982 RMK AO2 LTG DSNT SE

10-Day Weather Forecast

Almanac

Astronomy

Jul. 23, 2016 Rise Set
Actual Time
Civil Twilight
Nautical Twilight
Astronomical Twilight
Moon
Length of Visible Light
Length of Day
Tomorrow will be .
, % of the Moon is Illuminated

Today's Extremes

State Highs State Lows

Community

WunderPhotos

Upload Photos

1,926,974 photos uploaded!

WunderBlog® & News

Nearby

Air Quality

  Air Quality AQ Index Pollutant
Not available.

Snow Depth

Station Depth Elevation

Earthquake Activity

City Distance Mag. Time & Date
Minimum magnitude displayed is 2.5.

Coastal Water Temperatures

Place Temperature

Stations

Nearby Weather Stations

Station Location Temp. Windchill Dew Point Humidity Wind Precip. Elev Updated Type
                   

Watches & Warnings

There are currently no watches in effect.